Central, Idaho
Current Conditions -  °F | °C
As of 4:55 PM on Friday 31 Oct 2014 (Local Time) from KAFO Reporting Station
Clear Clear  
Wind Chill: 59°   Ceiling: Unl
Heat Index: 59°   Visibility: 10mi
Dew Point: 30°   Wind: 6mph
Humidity: 34%   Direction: 230°SW
Pressure: 29.95"   Gusts: NA
Location:  42.5232°N, 111.761°W
Report Text: KAFO 312255Z AUTO 23005KT 10SM CLR 15/M01 A2995 RMK AO2
Loading
Personal Weather Stations






























Interactive Weather Map
Tropical Storm Tracking
New forecast layout! Learn more

10-Day Weather Forecast

Advertisements
Track Severe Weather on mobile